createdAt,value
2023-10-09T00:00:35.613Z,94470.86
2023-10-09T00:01:29.961Z,94469.06
2023-10-09T00:02:07.558Z,94465.86
2023-10-09T00:02:49.915Z,94466.20
2023-10-09T00:03:24.657Z,94472.43
2023-10-09T00:04:02.719Z,94467.10
2023-10-09T00:04:38.957Z,94464.27
2023-10-09T00:05:24.386Z,94464.08
2023-10-09T00:06:38.448Z,94463.71
2023-10-09T00:07:13.562Z,94463.48
2023-10-09T00:07:47.406Z,94465.84
2023-10-09T00:08:28.895Z,94461.88
2023-10-09T00:09:23.813Z,94458.30
2023-10-09T00:10:14.477Z,94457.88
2023-10-09T00:10:54.711Z,94450.75
2023-10-09T00:11:31.551Z,94444.00
2023-10-09T00:12:11.708Z,94433.92
2023-10-09T00:12:45.992Z,94431.52
2023-10-09T00:13:58.985Z,94432.71
2023-10-09T00:14:35.501Z,94437.76
2023-10-09T00:15:11.342Z,94446.63
2023-10-09T00:15:45.427Z,94451.77
2023-10-09T00:16:36.461Z,94453.08
2023-10-09T00:17:32.726Z,94448.94
2023-10-09T00:18:07.447Z,94451.94
2023-10-09T00:18:47.744Z,94453.12
2023-10-09T00:19:22.468Z,94457.52
2023-10-09T00:20:01.376Z,94458.33
2023-10-09T00:20:44.023Z,94453.05
2023-10-09T00:21:29.523Z,94450.65
2023-10-09T00:22:06.672Z,94449.03
2023-10-09T00:22:44.808Z,94441.98
2023-10-09T00:23:18.174Z,94446.29
2023-10-09T00:23:57.503Z,94449.20
2023-10-09T00:25:12.344Z,94448.02
2023-10-09T00:25:59.857Z,94441.95
2023-10-09T00:26:44.467Z,94440.48
2023-10-09T00:27:21.181Z,94438.65
2023-10-09T00:27:54.763Z,94436.84
2023-10-09T00:28:53.732Z,94422.75
2023-10-09T00:29:34.545Z,94429.86
2023-10-09T00:30:09.280Z,94431.88
2023-10-09T00:30:44.216Z,94433.84
2023-10-09T00:31:17.843Z,94440.51
2023-10-09T00:31:53.023Z,94446.81
2023-10-09T00:32:53.588Z,94448.43
2023-10-09T00:33:27.367Z,94450.40
2023-10-09T00:34:06.893Z,94450.17
2023-10-09T00:34:41.784Z,94449.48
2023-10-09T00:35:35.259Z,94452.91
2023-10-09T00:36:28.879Z,94449.29
2023-10-09T00:37:05.888Z,94453.63
2023-10-09T00:37:39.478Z,94453.21
2023-10-09T00:38:21.882Z,94448.52
2023-10-09T00:38:55.986Z,94450.82
2023-10-09T00:40:14.204Z,94449.30
2023-10-09T00:40:54.182Z,94445.67
2023-10-09T00:41:27.694Z,94443.82
2023-10-09T00:42:02.638Z,94438.61
2023-10-09T00:42:39.466Z,94436.38
2023-10-09T00:43:51.077Z,94430.42
2023-10-09T00:44:25.606Z,94435.55
2023-10-09T00:45:06.243Z,94435.34
2023-10-09T00:45:41.617Z,94432.41
2023-10-09T00:46:22.328Z,94433.21
2023-10-09T00:47:28.711Z,94435.44
2023-10-09T00:48:04.284Z,94433.13
2023-10-09T00:48:44.566Z,94437.41
2023-10-09T00:49:23.329Z,94435.64
2023-10-09T00:50:02.308Z,94434.74
2023-10-09T00:51:23.709Z,94432.85
2023-10-09T00:51:58.075Z,94430.76
2023-10-09T00:52:37.858Z,94427.55
2023-10-09T00:53:14.247Z,94424.46
2023-10-09T00:53:52.937Z,94419.26
2023-10-09T00:54:43.020Z,94421.31
2023-10-09T00:55:22.435Z,94424.34
2023-10-09T00:55:57.938Z,94427.63
2023-10-09T00:56:39.987Z,94427.63
2023-10-09T00:57:15.436Z,94427.52
2023-10-09T00:58:01.238Z,94426.36
2023-10-09T00:58:44.817Z,94422.20
2023-10-09T00:59:21.619Z,94419.38
2023-10-09T01:00:01.013Z,94416.60
2023-10-09T01:00:47.265Z,94412.10
2023-10-09T01:01:24.496Z,94412.04
2023-10-09T01:02:00.448Z,94409.96
2023-10-09T01:02:44.647Z,94402.84
2023-10-09T01:03:19.534Z,94403.09
2023-10-09T01:04:01.003Z,94397.39
2023-10-09T01:04:38.641Z,94396.52
2023-10-09T01:05:21.603Z,94392.94
2023-10-09T01:06:22.863Z,94388.73
2023-10-09T01:07:15.015Z,94391.69
2023-10-09T01:07:50.096Z,94386.45
2023-10-09T01:08:47.201Z,94384.05
2023-10-09T01:09:24.509Z,94377.83
2023-10-09T01:10:36.083Z,94377.39
2023-10-09T01:11:24.893Z,94377.77
2023-10-09T01:12:02.232Z,94374.32
2023-10-09T01:12:43.713Z,94375.09
2023-10-09T01:13:20.078Z,94378.65
2023-10-09T01:14:25.378Z,94369.66
2023-10-09T01:15:01.380Z,94374.69
2023-10-09T01:15:45.517Z,94371.09
2023-10-09T01:16:20.488Z,94372.66
2023-10-09T01:16:56.350Z,94368.38
2023-10-09T01:18:09.672Z,94371.42
2023-10-09T01:18:46.139Z,94368.36
2023-10-09T01:19:25.885Z,94374.47
2023-10-09T01:20:00.236Z,94373.48
2023-10-09T01:20:42.969Z,94370.22
2023-10-09T01:21:45.012Z,94372.33
2023-10-09T01:22:23.010Z,94369.71
2023-10-09T01:22:57.404Z,94373.68
2023-10-09T01:23:33.645Z,94367.69
2023-10-09T01:24:10.545Z,94369.48
2023-10-09T01:24:45.136Z,94366.98
2023-10-09T01:25:40.470Z,94371.20
2023-10-09T01:26:14.329Z,94367.67
2023-10-09T01:26:48.927Z,94367.71
2023-10-09T01:27:25.662Z,94369.98
2023-10-09T01:27:59.450Z,94367.11
2023-10-09T01:29:16.284Z,94370.25
2023-10-09T01:29:52.005Z,94369.33
2023-10-09T01:30:26.000Z,94366.37
2023-10-09T01:30:59.944Z,94368.20
2023-10-09T01:31:39.038Z,94370.39
2023-10-09T01:32:46.748Z,94369.83
2023-10-09T01:33:24.064Z,94372.88
2023-10-09T01:34:01.265Z,94370.83
2023-10-09T01:34:45.231Z,94368.22
2023-10-09T01:35:22.879Z,94368.67
2023-10-09T01:36:00.612Z,94364.31
2023-10-09T01:36:43.323Z,94366.73
2023-10-09T01:37:21.479Z,94369.35
2023-10-09T01:37:58.267Z,94363.34
2023-10-09T01:38:42.132Z,94364.72
2023-10-09T01:39:25.636Z,94363.23
2023-10-09T01:40:39.231Z,94355.50
2023-10-09T01:41:17.285Z,94354.64
2023-10-09T01:41:53.515Z,94354.34
2023-10-09T01:42:36.658Z,94351.38
2023-10-09T01:43:14.139Z,94352.09
2023-10-09T01:44:18.613Z,94351.04
2023-10-09T01:44:54.766Z,94348.98
2023-10-09T01:45:28.885Z,94349.23
2023-10-09T01:46:02.936Z,94350.17
2023-10-09T01:46:37.547Z,94349.11
2023-10-09T01:47:15.689Z,94344.62
2023-10-09T01:48:06.151Z,94347.45
2023-10-09T01:48:45.468Z,94347.41
2023-10-09T01:49:23.077Z,94348.35
2023-10-09T01:49:59.447Z,94349.89
2023-10-09T01:50:37.061Z,94345.96
2023-10-09T01:51:41.171Z,94345.29
2023-10-09T01:52:18.340Z,94346.61
2023-10-09T01:52:55.279Z,94347.91
2023-10-09T01:53:31.897Z,94345.23
2023-10-09T01:54:05.532Z,94343.81
2023-10-09T01:54:41.466Z,94343.62
2023-10-09T01:55:41.502Z,94341.73
2023-10-09T01:56:16.754Z,94342.48
2023-10-09T01:56:50.529Z,94340.02
2023-10-09T01:57:25.889Z,94339.56
2023-10-09T01:57:59.901Z,94341.93
2023-10-09T01:59:07.368Z,94339.22
2023-10-09T01:59:51.019Z,94339.88
2023-10-09T02:03:26.110Z,94336.08
2023-10-09T02:04:07.845Z,94339.04
2023-10-09T02:04:44.739Z,94336.74
2023-10-09T02:05:18.451Z,94340.71
2023-10-09T02:05:53.193Z,94341.30
2023-10-09T02:06:53.299Z,94340.30
2023-10-09T02:07:31.320Z,94340.22
2023-10-09T02:08:06.700Z,94336.81
2023-10-09T02:08:40.738Z,94335.19
2023-10-09T02:09:23.664Z,94333.56
2023-10-09T02:10:49.606Z,94327.23
2023-10-09T02:11:38.078Z,94328.13
2023-10-09T02:12:12.205Z,94327.81
2023-10-09T02:12:48.509Z,94322.22
2023-10-09T02:13:30.697Z,94320.41
2023-10-09T02:14:20.777Z,94319.94
2023-10-09T02:14:57.567Z,94321.06
2023-10-09T02:15:44.315Z,94322.12
2023-10-09T02:16:29.906Z,94317.96
2023-10-09T02:17:04.063Z,94315.02
2023-10-09T02:17:53.716Z,94313.84
2023-10-09T02:18:47.525Z,94315.40
2023-10-09T02:19:33.204Z,94315.27
2023-10-09T02:20:24.655Z,94311.04
2023-10-09T02:21:01.568Z,94314.36
2023-10-09T02:21:43.504Z,94314.44
2023-10-09T02:22:18.203Z,94316.88
2023-10-09T02:22:54.646Z,94313.31
2023-10-09T02:23:49.731Z,94315.13
2023-10-09T02:24:41.827Z,94312.15
2023-10-09T02:25:45.334Z,94310.15
2023-10-09T02:26:27.874Z,94313.20
2023-10-09T02:27:08.540Z,94310.08
2023-10-09T02:27:54.973Z,94307.96
2023-10-09T02:28:34.505Z,94309.38
2023-10-09T02:29:14.187Z,94309.64
2023-10-09T02:29:59.746Z,94307.25
2023-10-09T02:30:36.137Z,94308.33
2023-10-09T02:31:13.555Z,94298.30
2023-10-09T02:31:53.283Z,94298.85
2023-10-09T02:32:28.164Z,94298.64
2023-10-09T02:33:37.769Z,94295.53
2023-10-09T02:34:12.715Z,94294.48
2023-10-09T02:34:48.081Z,94296.20
2023-10-09T02:35:30.437Z,94298.21
2023-10-09T02:36:06.790Z,94296.55
2023-10-09T02:36:43.339Z,94293.89
2023-10-09T02:37:26.829Z,94293.20
2023-10-09T02:38:00.757Z,94288.73
2023-10-09T02:38:39.936Z,94288.98
2023-10-09T02:39:30.489Z,94290.30
2023-10-09T02:40:10.262Z,94289.06
2023-10-09T02:41:04.186Z,94289.88
2023-10-09T02:41:51.170Z,94285.95
2023-10-09T02:42:25.081Z,94287.26
2023-10-09T02:42:59.963Z,94285.55
2023-10-09T02:43:46.226Z,94284.17
2023-10-09T02:44:26.119Z,94282.89
2023-10-09T02:45:36.582Z,94280.44
2023-10-09T02:46:15.656Z,94279.42
2023-10-09T02:46:49.364Z,94281.16
2023-10-09T02:47:26.614Z,94283.60
2023-10-09T02:48:01.947Z,94280.38
2023-10-09T02:49:11.359Z,94281.45
2023-10-09T02:49:45.208Z,94281.55
2023-10-09T02:50:22.374Z,94283.73
2023-10-09T02:50:56.306Z,94282.09
2023-10-09T02:51:30.360Z,94281.91
2023-10-09T02:52:08.849Z,94280.80
2023-10-09T02:53:00.477Z,94281.07
2023-10-09T02:53:38.972Z,94280.88
2023-10-09T02:54:24.954Z,94280.66
2023-10-09T02:55:02.825Z,94280.73
2023-10-09T02:55:40.425Z,94277.81
2023-10-09T02:56:39.460Z,94277.75
2023-10-09T02:57:23.334Z,94277.41
2023-10-09T02:58:19.926Z,94278.02
2023-10-09T02:58:53.539Z,94273.07
2023-10-09T02:59:27.319Z,94272.48
2023-10-09T03:00:31.188Z,94273.89
2023-10-09T03:01:05.118Z,94270.26
2023-10-09T03:01:40.020Z,94272.10
2023-10-09T03:02:14.046Z,94273.21
2023-10-09T03:02:51.627Z,94269.67
2023-10-09T03:04:00.289Z,94267.89
2023-10-09T03:04:34.593Z,94268.29
2023-10-09T03:05:13.503Z,94268.83
2023-10-09T03:05:47.001Z,94268.98
2023-10-09T03:06:26.576Z,94267.86
2023-10-09T03:07:35.764Z,94268.00
2023-10-09T03:08:10.306Z,94265.36
2023-10-09T03:08:44.214Z,94259.55
2023-10-09T03:09:28.989Z,94262.15
2023-10-09T03:10:03.218Z,94261.79
2023-10-09T03:10:36.821Z,94260.52
2023-10-09T03:11:22.926Z,94257.17
2023-10-09T03:12:04.008Z,94253.05
2023-10-09T03:12:38.473Z,94251.41
2023-10-09T03:13:12.627Z,94254.41
2023-10-09T03:13:46.908Z,94253.08
2023-10-09T03:14:22.550Z,94249.98
2023-10-09T03:15:10.624Z,94249.37
2023-10-09T03:15:44.471Z,94248.35
2023-10-09T03:16:22.503Z,94249.32
2023-10-09T03:16:59.722Z,94246.46
2023-10-09T03:17:35.742Z,94248.02
2023-10-09T03:18:09.568Z,94244.52
2023-10-09T03:18:57.542Z,94243.48
2023-10-09T03:19:32.360Z,94244.67
2023-10-09T03:20:13.952Z,94244.52
2023-10-09T03:20:47.996Z,94252.57
2023-10-09T03:21:21.716Z,94246.73
2023-10-09T03:22:32.713Z,94249.39
2023-10-09T03:23:09.659Z,94249.71
2023-10-09T03:23:45.601Z,94244.36
2023-10-09T03:24:21.433Z,94245.70
2023-10-09T03:24:57.008Z,94243.27
2023-10-09T03:25:30.469Z,94239.34
2023-10-09T03:26:21.483Z,94243.27
2023-10-09T03:26:59.369Z,94243.92
2023-10-09T03:27:32.875Z,94241.67
2023-10-09T03:28:07.861Z,94240.91
2023-10-09T03:28:41.567Z,94241.21
2023-10-09T03:29:57.019Z,94242.71
2023-10-09T03:30:34.388Z,94240.05
2023-10-09T03:31:08.729Z,94240.30
2023-10-09T03:31:44.765Z,94242.77
2023-10-09T03:32:18.458Z,94236.80
2023-10-09T03:32:53.050Z,94237.42
2023-10-09T03:33:35.090Z,94233.02
2023-10-09T03:34:11.947Z,94233.42
2023-10-09T03:34:47.220Z,94235.71
2023-10-09T03:35:35.764Z,94235.16
2023-10-09T03:36:12.892Z,94233.73
2023-10-09T03:36:49.940Z,94231.85
2023-10-09T03:37:37.225Z,94231.46
2023-10-09T03:38:13.576Z,94229.71
2023-10-09T03:38:46.935Z,94233.34
2023-10-09T03:39:39.109Z,94229.75
2023-10-09T03:40:19.030Z,94231.22
2023-10-09T03:41:22.051Z,94228.47
2023-10-09T03:41:56.242Z,94229.93
2023-10-09T03:42:32.117Z,94227.16
2023-10-09T03:43:06.344Z,94224.05
2023-10-09T03:43:42.389Z,94225.27
2023-10-09T03:44:19.630Z,94224.59
2023-10-09T03:45:14.207Z,94221.25
2023-10-09T03:45:55.691Z,94218.13
2023-10-09T03:46:34.552Z,94216.42
2023-10-09T03:47:10.994Z,94213.42
2023-10-09T03:47:45.852Z,94212.69
2023-10-09T03:48:58.252Z,94211.14
2023-10-09T03:49:33.439Z,94209.75
2023-10-09T03:50:25.369Z,94208.28
2023-10-09T03:51:10.932Z,94205.70
2023-10-09T03:51:46.960Z,94204.39
2023-10-09T03:52:32.425Z,94203.42
2023-10-09T03:53:09.339Z,94201.46
2023-10-09T03:53:44.243Z,94203.91
2023-10-09T03:54:21.914Z,94203.23
2023-10-09T03:54:56.326Z,94206.11
2023-10-09T03:55:30.307Z,94201.76
2023-10-09T03:56:17.276Z,94204.98
2023-10-09T03:56:51.715Z,94207.90
2023-10-09T03:57:26.295Z,94208.72
2023-10-09T03:58:01.234Z,94209.10
2023-10-09T03:58:36.116Z,94213.30
2023-10-09T03:59:12.081Z,94215.09
2023-10-09T03:59:56.880Z,94210.61
2023-10-09T04:00:31.342Z,94212.23
2023-10-09T04:01:09.061Z,94209.93
2023-10-09T04:01:43.814Z,94210.11
2023-10-09T04:02:17.643Z,94206.02
2023-10-09T04:02:51.924Z,94206.63
2023-10-09T04:03:38.564Z,94204.52
2023-10-09T04:04:15.870Z,94204.42
2023-10-09T04:04:53.341Z,94205.31
2023-10-09T04:05:27.828Z,94203.88
2023-10-09T04:06:01.904Z,94201.54
2023-10-09T04:06:35.889Z,94203.51
2023-10-09T04:07:22.917Z,94201.38
2023-10-09T04:07:59.728Z,94205.40
2023-10-09T04:08:34.956Z,94200.33
2023-10-09T04:09:15.522Z,94199.63
2023-10-09T04:09:55.468Z,94204.02
2023-10-09T04:10:45.129Z,94205.77
2023-10-09T04:11:27.606Z,94200.67
2023-10-09T04:12:21.491Z,94198.52
2023-10-09T04:12:55.013Z,94199.27
2023-10-09T04:13:35.290Z,94199.67
2023-10-09T04:14:13.993Z,94197.47
2023-10-09T04:14:51.098Z,94197.89
2023-10-09T04:15:37.118Z,94193.84
2023-10-09T04:16:31.246Z,94192.61
2023-10-09T04:17:07.711Z,94191.76
2023-10-09T04:17:44.704Z,94193.36
2023-10-09T04:18:29.799Z,94190.73
2023-10-09T04:19:26.819Z,94188.85
2023-10-09T04:20:18.912Z,94186.37
2023-10-09T04:21:20.925Z,94185.58
2023-10-09T04:21:57.069Z,94184.77
2023-10-09T04:22:32.894Z,94185.84
2023-10-09T04:23:36.492Z,94187.20
2023-10-09T04:24:16.622Z,94185.25
2023-10-09T04:24:52.851Z,94186.38
2023-10-09T04:25:27.230Z,94182.37
2023-10-09T04:26:01.404Z,94182.19
2023-10-09T04:27:10.422Z,94184.36
2023-10-09T04:27:46.064Z,94182.97
2023-10-09T04:28:20.833Z,94181.20
2023-10-09T04:28:58.505Z,94180.02
2023-10-09T04:29:48.396Z,94180.74
2023-10-09T04:30:57.092Z,94174.99
2023-10-09T04:31:36.369Z,94178.23
2023-10-09T04:32:19.158Z,94176.24
2023-10-09T04:32:56.753Z,94172.48
2023-10-09T04:33:30.371Z,94167.16
2023-10-09T04:34:30.217Z,94168.27
2023-10-09T04:35:24.215Z,94169.77
2023-10-09T04:36:22.681Z,94169.83
2023-10-09T04:37:20.326Z,94166.95
2023-10-09T04:38:35.999Z,94166.29
2023-10-09T04:39:12.242Z,94165.73
2023-10-09T04:39:49.101Z,94161.42
2023-10-09T04:40:41.098Z,94158.80
2023-10-09T04:41:29.129Z,94163.89
2023-10-09T04:42:37.938Z,94159.75
2023-10-09T04:43:21.994Z,94159.52
2023-10-09T04:44:16.601Z,94156.29
2023-10-09T04:45:01.893Z,94156.56
2023-10-09T04:46:14.469Z,94162.14
2023-10-09T04:47:19.639Z,94163.71
2023-10-09T04:48:08.345Z,94161.47
2023-10-09T04:48:47.282Z,94159.98
2023-10-09T04:49:29.717Z,94159.75
2023-10-09T04:50:17.816Z,94158.21
2023-10-09T04:51:12.097Z,94157.57
2023-10-09T04:52:01.073Z,94154.88
2023-10-09T04:52:35.010Z,94151.30
2023-10-09T04:53:17.560Z,94148.09
2023-10-09T04:54:15.331Z,94148.21
2023-10-09T04:55:06.760Z,94150.46
2023-10-09T04:55:40.492Z,94148.56
2023-10-09T04:56:17.996Z,94149.99
2023-10-09T04:56:54.273Z,94148.36
2023-10-09T04:58:03.282Z,94144.70
2023-10-09T04:58:40.917Z,94142.88
2023-10-09T04:59:20.041Z,94143.00
2023-10-09T04:59:53.988Z,94145.39
2023-10-09T05:00:28.675Z,94145.45
2023-10-09T05:01:38.146Z,94143.25
2023-10-09T05:02:20.697Z,94143.33
2023-10-09T05:03:08.963Z,94141.65
2023-10-09T05:03:42.957Z,94139.57
2023-10-09T05:04:48.779Z,94136.88
2023-10-09T05:05:43.147Z,94137.65
2023-10-09T05:06:35.758Z,94134.35
2023-10-09T05:07:30.445Z,94130.27
2023-10-09T05:08:20.286Z,94128.88
2023-10-09T05:09:50.173Z,94125.81
2023-10-09T05:10:27.171Z,94128.85
2023-10-09T05:11:04.594Z,94130.14
2023-10-09T05:11:55.118Z,94125.39
2023-10-09T05:12:30.737Z,94129.33
2023-10-09T05:13:15.401Z,94122.25
2023-10-09T05:13:59.398Z,94124.06
2023-10-09T05:14:47.083Z,94124.90
2023-10-09T05:15:28.341Z,94125.72
2023-10-09T05:16:04.353Z,94127.27
2023-10-09T05:16:57.439Z,94127.42
2023-10-09T05:17:31.666Z,94124.41
2023-10-09T05:18:10.968Z,94117.68
2023-10-09T05:18:46.988Z,94123.52
2023-10-09T05:19:39.822Z,94123.67
2023-10-09T05:20:30.792Z,94122.50
2023-10-09T05:21:14.261Z,94124.34
2023-10-09T05:21:48.897Z,94121.78
2023-10-09T05:22:31.488Z,94127.14
2023-10-09T05:23:37.728Z,94128.95
2023-10-09T05:24:25.230Z,94124.74
2023-10-09T05:25:00.102Z,94124.79
2023-10-09T05:25:52.104Z,94121.98
2023-10-09T05:26:38.968Z,94121.93
2023-10-09T05:27:41.697Z,94121.17
2023-10-09T05:28:32.808Z,94118.79
2023-10-09T05:29:25.828Z,94122.65
2023-10-09T05:30:14.360Z,94119.25
2023-10-09T05:30:59.994Z,94115.48
2023-10-09T05:31:52.299Z,94115.05
2023-10-09T05:32:37.248Z,94117.39
2023-10-09T05:33:29.699Z,94119.69
2023-10-09T05:34:08.230Z,94118.48
2023-10-09T05:35:00.769Z,94117.52
2023-10-09T05:36:00.919Z,94118.02
2023-10-09T05:37:12.347Z,94112.96
2023-10-09T05:37:47.355Z,94117.85
2023-10-09T05:38:26.702Z,94116.64
2023-10-09T05:39:00.567Z,94113.90
2023-10-09T05:39:42.899Z,94118.33
2023-10-09T05:40:36.946Z,94115.60
2023-10-09T05:41:29.305Z,94118.53
2023-10-09T05:42:11.189Z,94119.20
2023-10-09T05:42:45.840Z,94120.63
2023-10-09T05:43:39.268Z,94122.92
2023-10-09T05:44:45.653Z,94121.77
2023-10-09T05:45:20.319Z,94118.40
2023-10-09T05:46:09.975Z,94122.81
2023-10-09T05:47:03.322Z,94125.52
2023-10-09T05:48:05.059Z,94125.85
2023-10-09T05:48:41.973Z,94124.88
2023-10-09T05:49:26.319Z,94127.12
2023-10-09T05:50:27.192Z,94122.42
2023-10-09T05:51:35.912Z,94121.04
2023-10-09T05:52:34.109Z,94119.58
2023-10-09T05:53:11.307Z,94119.14
2023-10-09T05:53:45.056Z,94121.21
2023-10-09T05:54:36.954Z,94116.37
2023-10-09T05:55:25.729Z,94110.39
2023-10-09T05:56:25.507Z,94114.73
2023-10-09T05:57:22.077Z,94113.16
2023-10-09T05:58:15.223Z,94112.59
2023-10-09T05:59:07.362Z,94109.12
2023-10-09T06:00:17.322Z,94106.84
2023-10-09T06:01:10.255Z,94103.35
2023-10-09T06:01:58.943Z,94102.78
2023-10-09T06:03:07.888Z,94103.80
2023-10-09T06:04:11.476Z,94102.59
2023-10-09T06:04:56.184Z,94105.63
2023-10-09T06:06:03.206Z,94103.36
2023-10-09T06:07:09.197Z,94109.44
2023-10-09T06:08:09.058Z,94106.11
2023-10-09T06:08:43.043Z,94106.21
2023-10-09T06:09:19.986Z,94109.44
2023-10-09T06:09:58.872Z,94112.48
2023-10-09T06:10:43.160Z,94108.05
2023-10-09T06:11:40.942Z,94111.00
2023-10-09T06:12:33.750Z,94108.91
2023-10-09T06:13:08.760Z,94113.96
2023-10-09T06:13:48.311Z,94115.71
2023-10-09T06:14:31.927Z,94115.45
2023-10-09T06:15:47.506Z,94121.73
2023-10-09T06:16:31.599Z,94120.01
2023-10-09T06:17:24.791Z,94129.08
2023-10-09T06:18:18.604Z,94122.48
2023-10-09T06:19:28.830Z,94129.54
2023-10-09T06:20:24.331Z,94130.98
2023-10-09T06:21:06.611Z,94131.80
2023-10-09T06:21:41.438Z,94134.37
2023-10-09T06:22:41.069Z,94133.00
2023-10-09T06:23:42.336Z,94134.06
2023-10-09T06:24:16.969Z,94137.69
2023-10-09T06:24:56.639Z,94139.34
2023-10-09T06:25:34.463Z,94140.66
2023-10-09T06:26:25.583Z,94140.15
2023-10-09T06:27:07.102Z,94139.41
2023-10-09T06:27:44.212Z,94139.72
2023-10-09T06:28:20.198Z,94138.45
2023-10-09T06:29:12.623Z,94135.70
2023-10-09T06:29:46.005Z,94140.09
2023-10-09T06:30:19.691Z,94135.58
2023-10-09T06:31:25.963Z,94131.18
2023-10-09T06:32:00.498Z,94128.57
2023-10-09T06:32:34.227Z,94129.86
2023-10-09T06:33:27.997Z,94127.89
2023-10-09T06:34:17.203Z,94128.31
2023-10-09T06:35:17.365Z,94127.63
2023-10-09T06:35:56.939Z,94128.47
2023-10-09T06:36:32.850Z,94126.66
2023-10-09T06:37:19.079Z,94124.40
2023-10-09T06:38:05.245Z,94129.70
2023-10-09T06:39:15.238Z,94130.18
2023-10-09T06:39:57.463Z,94134.05
2023-10-09T06:40:38.222Z,94128.11
2023-10-09T06:41:11.522Z,94133.02
2023-10-09T06:41:46.837Z,94134.10
2023-10-09T06:42:35.758Z,94136.35
2023-10-09T06:43:11.100Z,94129.50
2023-10-09T06:43:44.528Z,94135.05
2023-10-09T06:44:37.882Z,94140.11
2023-10-09T06:45:15.183Z,94138.05
2023-10-09T06:46:11.175Z,94132.84
2023-10-09T06:46:54.203Z,94132.09
2023-10-09T06:47:27.724Z,94132.96
2023-10-09T06:48:11.558Z,94133.04
2023-10-09T06:48:57.535Z,94131.03
2023-10-09T06:49:34.662Z,94124.45
2023-10-09T06:50:57.393Z,94123.69
2023-10-09T06:51:30.761Z,94124.98
2023-10-09T06:52:16.955Z,94123.08
2023-10-09T06:53:24.664Z,94122.02
2023-10-09T06:54:18.058Z,94125.73
2023-10-09T06:54:52.480Z,94123.69
2023-10-09T06:55:58.538Z,94120.20
2023-10-09T06:56:31.956Z,94125.27
2023-10-09T06:57:28.208Z,94119.73
2023-10-09T06:58:16.761Z,94117.62
2023-10-09T06:58:51.332Z,94116.75
2023-10-09T06:59:26.041Z,94119.26
2023-10-09T07:00:18.311Z,94118.63
2023-10-09T07:01:10.256Z,94116.52
2023-10-09T07:02:18.027Z,94116.70
2023-10-09T07:02:52.098Z,94110.63
2023-10-09T07:03:35.512Z,94113.03
2023-10-09T07:04:32.900Z,94110.40
2023-10-09T07:06:25.890Z,94113.86
2023-10-09T07:07:00.793Z,94106.54
2023-10-09T07:07:36.631Z,94112.85
2023-10-09T07:08:30.153Z,94110.63
2023-10-09T07:09:07.640Z,94112.24
2023-10-09T07:10:07.856Z,94115.84
2023-10-09T07:10:41.383Z,94120.52
2023-10-09T07:11:43.830Z,94121.10
2023-10-09T07:12:27.675Z,94124.34
2023-10-09T07:13:38.606Z,94128.89
2023-10-09T07:14:53.585Z,94124.52
2023-10-09T07:15:45.384Z,94123.59
2023-10-09T07:16:30.382Z,94128.57
2023-10-09T07:17:25.996Z,94125.10
2023-10-09T07:18:21.508Z,94124.17
2023-10-09T07:18:56.456Z,94124.51
2023-10-09T07:19:36.595Z,94120.93
2023-10-09T07:20:30.803Z,94123.63
2023-10-09T07:21:12.974Z,94118.46
2023-10-09T07:22:22.503Z,94122.18
2023-10-09T07:22:58.207Z,94116.95
2023-10-09T07:23:34.655Z,94114.96
2023-10-09T07:24:22.605Z,94116.70
2023-10-09T07:24:58.855Z,94117.78
2023-10-09T07:26:26.793Z,94112.11
2023-10-09T07:27:07.941Z,94117.95
2023-10-09T07:27:51.178Z,94121.55
2023-10-09T07:28:38.343Z,94118.34
2023-10-09T07:29:50.683Z,94123.74
2023-10-09T07:30:30.398Z,94118.86
2023-10-09T07:31:04.712Z,94115.17
2023-10-09T07:31:41.607Z,94116.91
2023-10-09T07:32:21.778Z,94114.27
2023-10-09T07:33:32.762Z,94116.00
2023-10-09T07:34:09.002Z,94113.83
2023-10-09T07:34:54.634Z,94113.13
2023-10-09T07:35:46.465Z,94109.94
2023-10-09T07:36:36.469Z,94110.07
2023-10-09T07:37:20.584Z,94108.40
2023-10-09T07:37:54.340Z,94105.75
2023-10-09T07:38:31.218Z,94106.83
2023-10-09T07:39:15.379Z,94102.50
2023-10-09T07:39:58.672Z,94106.60
2023-10-09T07:41:08.691Z,94113.54
2023-10-09T07:42:03.284Z,94113.05
2023-10-09T07:42:37.049Z,94120.02
2023-10-09T07:43:17.850Z,94126.66
2023-10-09T07:43:52.422Z,94123.55
2023-10-09T07:44:38.998Z,94126.31
2023-10-09T07:45:21.307Z,94123.85
2023-10-09T07:46:15.341Z,94122.65
2023-10-09T07:47:14.482Z,94124.90
2023-10-09T07:48:07.267Z,94130.21
2023-10-09T07:48:50.202Z,94131.08
2023-10-09T07:49:32.843Z,94123.73
2023-10-09T07:50:12.890Z,94125.11
2023-10-09T07:50:50.285Z,94129.02
2023-10-09T07:51:24.980Z,94124.94
2023-10-09T07:52:00.290Z,94126.70
2023-10-09T07:52:33.644Z,94129.39
2023-10-09T07:53:28.097Z,94113.02
2023-10-09T07:54:10.772Z,94122.76
2023-10-09T07:54:51.538Z,94124.95
2023-10-09T07:55:28.293Z,94129.89
2023-10-09T07:56:08.325Z,94124.60
2023-10-09T07:57:17.526Z,94132.64
2023-10-09T07:57:53.603Z,94135.20
2023-10-09T07:58:27.476Z,94135.98
2023-10-09T07:59:01.833Z,94132.29
2023-10-09T07:59:38.561Z,94135.14
2023-10-09T08:01:08.205Z,94130.48
2023-10-09T08:01:54.010Z,94133.67
2023-10-09T08:02:33.841Z,94130.65
2023-10-09T08:03:25.761Z,94130.32
2023-10-09T08:05:00.289Z,94131.64
2023-10-09T08:05:45.998Z,94134.06
2023-10-09T08:06:38.220Z,94132.73
2023-10-09T08:08:02.034Z,94131.95
2023-10-09T08:08:38.823Z,94133.10
2023-10-09T08:09:20.104Z,94136.65
2023-10-09T08:10:15.743Z,94136.71
2023-10-09T08:11:07.679Z,94132.26
2023-10-09T08:12:51.044Z,94138.45
2023-10-09T08:13:46.337Z,94134.36
2023-10-09T08:14:36.459Z,94135.85
2023-10-09T08:15:20.554Z,94134.85
2023-10-09T08:16:26.239Z,94131.46
2023-10-09T08:17:17.911Z,94126.70
2023-10-09T08:17:56.186Z,94124.92
2023-10-09T08:18:30.109Z,94128.86
2023-10-09T08:19:25.368Z,94127.33
2023-10-09T08:20:18.724Z,94130.30
2023-10-09T08:21:12.785Z,94116.27
2023-10-09T08:22:06.057Z,94125.43
2023-10-09T08:22:46.647Z,94131.16
2023-10-09T08:23:49.752Z,94129.84
2023-10-09T08:24:42.924Z,94131.05
2023-10-09T08:25:36.472Z,94128.63
2023-10-09T08:26:16.503Z,94129.02
2023-10-09T08:27:10.202Z,94125.04
2023-10-09T08:27:55.882Z,94128.16
2023-10-09T08:28:52.130Z,94130.00
2023-10-09T08:29:36.078Z,94131.37
2023-10-09T08:30:28.061Z,94129.64
2023-10-09T08:31:04.886Z,94133.13
2023-10-09T08:31:47.586Z,94126.78
2023-10-09T08:35:07.830Z,94132.48
2023-10-09T08:35:49.684Z,94133.92
2023-10-09T08:36:38.367Z,94134.20
2023-10-09T08:37:14.682Z,94136.45
2023-10-09T08:37:50.421Z,94133.44
2023-10-09T08:38:28.306Z,94137.15
2023-10-09T08:39:15.218Z,94135.02
2023-10-09T08:40:10.527Z,94136.56
2023-10-09T08:40:44.771Z,94138.67
2023-10-09T08:41:19.262Z,94136.34
2023-10-09T08:41:59.646Z,94141.48
2023-10-09T08:42:33.678Z,94141.43
2023-10-09T08:43:20.274Z,94139.33
2023-10-09T08:44:04.381Z,94142.64
2023-10-09T08:44:41.109Z,94141.54
2023-10-09T08:45:16.097Z,94141.38
2023-10-09T08:45:53.387Z,94138.43
2023-10-09T08:46:28.955Z,94138.89
2023-10-09T08:47:39.724Z,94140.78
2023-10-09T08:48:17.393Z,94147.30
2023-10-09T08:48:52.407Z,94141.91
2023-10-09T08:49:27.489Z,94149.95
2023-10-09T08:50:03.103Z,94148.89
2023-10-09T08:50:37.425Z,94147.03
2023-10-09T08:51:25.455Z,94149.46
2023-10-09T08:52:04.676Z,94142.48
2023-10-09T08:52:39.217Z,94143.59